sensor_id;sensor_type;location;lat;lon;timestamp;pressure;altitude;pressure_sealevel;temperature;humidity
10718;BME280;13513;42.700;23.124;2023-03-20T00:00:24;93221.29;;;7.29;63.51
10718;BME280;13513;42.700;23.124;2023-03-20T00:02:53;93212.32;;;7.10;65.29
10718;BME280;13513;42.700;23.124;2023-03-20T00:05:26;93208.42;;;6.85;65.70
10718;BME280;13513;42.700;23.124;2023-03-20T00:07:56;93207.82;;;6.83;63.55
10718;BME280;13513;42.700;23.124;2023-03-20T00:10:37;93209.81;;;6.97;63.44
10718;BME280;13513;42.700;23.124;2023-03-20T00:13:13;93205.72;;;6.83;64.57
10718;BME280;13513;42.700;23.124;2023-03-20T00:15:41;93209.06;;;6.90;62.66
10718;BME280;13513;42.700;23.124;2023-03-20T00:18:19;93204.63;;;6.99;60.45
10718;BME280;13513;42.700;23.124;2023-03-20T00:20:52;93203.84;;;7.08;59.46
10718;BME280;13513;42.700;23.124;2023-03-20T00:23:22;93199.19;;;7.10;58.63
10718;BME280;13513;42.700;23.124;2023-03-20T00:25:53;93197.52;;;7.15;58.38
10718;BME280;13513;42.700;23.124;2023-03-20T00:28:47;93197.50;;;7.24;57.05
10718;BME280;13513;42.700;23.124;2023-03-20T00:31:19;93196.70;;;7.33;57.75
10718;BME280;13513;42.700;23.124;2023-03-20T00:33:47;93200.84;;;7.22;58.05
10718;BME280;13513;42.700;23.124;2023-03-20T00:36:17;93194.95;;;7.18;58.18
10718;BME280;13513;42.700;23.124;2023-03-20T00:38:48;93197.87;;;7.10;59.38
10718;BME280;13513;42.700;23.124;2023-03-20T00:41:29;93199.40;;;7.08;59.64
10718;BME280;13513;42.700;23.124;2023-03-20T00:46:52;93196.48;;;7.07;60.03
10718;BME280;13513;42.700;23.124;2023-03-20T00:49:32;93192.16;;;7.04;60.09
10718;BME280;13513;42.700;23.124;2023-03-20T00:52:03;93191.64;;;6.95;61.41
10718;BME280;13513;42.700;23.124;2023-03-20T00:54:34;93188.05;;;6.90;62.36
10718;BME280;13513;42.700;23.124;2023-03-20T00:57:06;93184.64;;;6.80;62.50
10718;BME280;13513;42.700;23.124;2023-03-20T00:59:39;93180.95;;;6.72;62.44
10718;BME280;13513;42.700;23.124;2023-03-20T01:02:10;93180.95;;;6.72;62.26
10718;BME280;13513;42.700;23.124;2023-03-20T01:04:41;93185.70;;;6.64;62.68
10718;BME280;13513;42.700;23.124;2023-03-20T01:07:15;93173.61;;;6.81;60.64
10718;BME280;13513;42.700;23.124;2023-03-20T01:09:46;93179.25;;;6.84;60.50
10718;BME280;13513;42.700;23.124;2023-03-20T01:12:15;93182.80;;;6.90;60.44
10718;BME280;13513;42.700;23.124;2023-03-20T01:14:49;93179.82;;;6.86;60.30
10718;BME280;13513;42.700;23.124;2023-03-20T01:17:20;93173.68;;;6.83;60.08
10718;BME280;13513;42.700;23.124;2023-03-20T01:19:52;93168.22;;;6.76;60.73
10718;BME280;13513;42.700;23.124;2023-03-20T01:22:23;93162.96;;;6.76;60.71
10718;BME280;13513;42.700;23.124;2023-03-20T01:24:55;93172.86;;;6.74;60.84
10718;BME280;13513;42.700;23.124;2023-03-20T01:27:26;93165.80;;;6.65;61.50
10718;BME280;13513;42.700;23.124;2023-03-20T01:29:57;93171.19;;;6.61;61.11
10718;BME280;13513;42.700;23.124;2023-03-20T01:32:28;93164.52;;;6.59;61.58
10718;BME280;13513;42.700;23.124;2023-03-20T01:34:58;93164.38;;;6.63;61.49
10718;BME280;13513;42.700;23.124;2023-03-20T01:37:29;93168.10;;;6.55;61.78
10718;BME280;13513;42.700;23.124;2023-03-20T01:40:00;93165.05;;;6.58;61.54
10718;BME280;13513;42.700;23.124;2023-03-20T01:42:33;93158.10;;;6.55;61.65
10718;BME280;13513;42.700;23.124;2023-03-20T01:45:16;93166.11;;;6.51;62.49
10718;BME280;13513;42.700;23.124;2023-03-20T01:47:47;93169.75;;;6.41;62.06
10718;BME280;13513;42.700;23.124;2023-03-20T01:50:22;93175.15;;;6.46;62.85
10718;BME280;13513;42.700;23.124;2023-03-20T01:53:08;93174.92;;;6.38;64.08
10718;BME280;13513;42.700;23.124;2023-03-20T01:55:39;93171.53;;;6.07;65.13
10718;BME280;13513;42.700;23.124;2023-03-20T01:58:15;93163.98;;;5.92;67.15
10718;BME280;13513;42.700;23.124;2023-03-20T02:00:46;93163.72;;;5.78;68.08
10718;BME280;13513;42.700;23.124;2023-03-20T02:03:19;93161.61;;;5.62;68.96
10718;BME280;13513;42.700;23.124;2023-03-20T02:05:50;93161.61;;;5.62;68.96
10718;BME280;13513;42.700;23.124;2023-03-20T02:08:29;93167.77;;;5.59;70.29
10718;BME280;13513;42.700;23.124;2023-03-20T02:10:58;93167.77;;;5.59;70.29
10718;BME280;13513;42.700;23.124;2023-03-20T02:13:30;93169.31;;;5.57;70.06
10718;BME280;13513;42.700;23.124;2023-03-20T02:16:14;93168.12;;;5.53;70.35
10718;BME280;13513;42.700;23.124;2023-03-20T02:18:47;93164.69;;;5.53;69.74
10718;BME280;13513;42.700;23.124;2023-03-20T02:35:51;93158.90;;;5.75;68.14
10718;BME280;13513;42.700;23.124;2023-03-20T02:44:58;93159.36;;;5.66;69.44
10718;BME280;13513;42.700;23.124;2023-03-20T02:49:54;93160.62;;;5.57;70.88
10718;BME280;13513;42.700;23.124;2023-03-20T02:52:47;93159.94;;;5.52;70.32
10718;BME280;13513;42.700;23.124;2023-03-20T02:55:38;93154.28;;;5.40;71.75
10718;BME280;13513;42.700;23.124;2023-03-20T02:58:21;93155.67;;;5.42;72.04
10718;BME280;13513;42.700;23.124;2023-03-20T03:00:52;93155.67;;;5.42;72.04
10718;BME280;13513;42.700;23.124;2023-03-20T03:03:32;93153.92;;;5.45;72.29
10718;BME280;13513;42.700;23.124;2023-03-20T03:05:58;93154.90;;;5.35;72.72
10718;BME280;13513;42.700;23.124;2023-03-20T03:08:32;93159.48;;;5.46;71.62
10718;BME280;13513;42.700;23.124;2023-03-20T03:11:04;93159.48;;;5.46;71.62
10718;BME280;13513;42.700;23.124;2023-03-20T03:13:43;93162.77;;;5.51;70.95
10718;BME280;13513;42.700;23.124;2023-03-20T03:16:24;93156.91;;;5.55;70.51
10718;BME280;13513;42.700;23.124;2023-03-20T03:18:46;93157.84;;;5.52;71.15
10718;BME280;13513;42.700;23.124;2023-03-20T03:21:18;93150.23;;;5.59;69.62
10718;BME280;13513;42.700;23.124;2023-03-20T03:23:52;93149.08;;;5.64;69.76
10718;BME280;13513;42.700;23.124;2023-03-20T03:26:27;93149.36;;;5.72;68.95
10718;BME280;13513;42.700;23.124;2023-03-20T03:29:04;93155.34;;;5.63;69.19
10718;BME280;13513;42.700;23.124;2023-03-20T03:31:33;93150.92;;;5.64;70.24
10718;BME280;13513;42.700;23.124;2023-03-20T03:34:04;93152.44;;;5.62;70.20
10718;BME280;13513;42.700;23.124;2023-03-20T03:45:11;93153.39;;;5.52;70.53
10718;BME280;13513;42.700;23.124;2023-03-20T03:50:31;93148.02;;;5.41;71.85
10718;BME280;13513;42.700;23.124;2023-03-20T03:53:00;93141.84;;;5.44;71.02
10718;BME280;13513;42.700;23.124;2023-03-20T03:55:35;93142.49;;;5.40;72.43
10718;BME280;13513;42.700;23.124;2023-03-20T03:58:03;93136.94;;;5.39;72.21
10718;BME280;13513;42.700;23.124;2023-03-20T04:00:35;93138.11;;;5.27;73.41
10718;BME280;13513;42.700;23.124;2023-03-20T04:03:09;93136.16;;;5.38;73.20
10718;BME280;13513;42.700;23.124;2023-03-20T04:05:44;93134.84;;;5.32;74.38
10718;BME280;13513;42.700;23.124;2023-03-20T04:08:15;93122.12;;;5.20;74.62
10718;BME280;13513;42.700;23.124;2023-03-20T04:10:46;93122.12;;;5.20;74.62
10718;BME280;13513;42.700;23.124;2023-03-20T04:13:16;93123.04;;;4.94;76.06
10718;BME280;13513;42.700;23.124;2023-03-20T04:15:47;93116.78;;;4.95;76.30
10718;BME280;13513;42.700;23.124;2023-03-20T04:18:18;93117.84;;;4.88;77.42
10718;BME280;13513;42.700;23.124;2023-03-20T04:20:48;93119.23;;;4.90;76.66
10718;BME280;13513;42.700;23.124;2023-03-20T04:23:19;93119.23;;;4.90;76.66
10718;BME280;13513;42.700;23.124;2023-03-20T04:25:50;93118.38;;;5.03;76.46
10718;BME280;13513;42.700;23.124;2023-03-20T04:28:20;93123.45;;;4.98;77.13
10718;BME280;13513;42.700;23.124;2023-03-20T04:30:55;93129.67;;;4.97;77.31
10718;BME280;13513;42.700;23.124;2023-03-20T04:33:25;93143.08;;;4.91;77.02
10718;BME280;13513;42.700;23.124;2023-03-20T04:35:56;93143.08;;;4.91;77.02
10718;BME280;13513;42.700;23.124;2023-03-20T04:38:27;93146.77;;;4.99;76.90
10718;BME280;13513;42.700;23.124;2023-03-20T04:40:59;93146.77;;;4.99;76.90
10718;BME280;13513;42.700;23.124;2023-03-20T04:43:30;93149.19;;;5.01;77.34
10718;BME280;13513;42.700;23.124;2023-03-20T04:46:01;93147.70;;;5.24;76.15
10718;BME280;13513;42.700;23.124;2023-03-20T04:48:33;93154.98;;;5.38;75.38
10718;BME280;13513;42.700;23.124;2023-03-20T04:51:04;93152.41;;;5.47;75.69
10718;BME280;13513;42.700;23.124;2023-03-20T04:53:35;93159.88;;;5.65;75.31
10718;BME280;13513;42.700;23.124;2023-03-20T04:56:07;93166.42;;;6.03;72.27
10718;BME280;13513;42.700;23.124;2023-03-20T04:58:37;93159.41;;;6.21;71.69
10718;BME280;13513;42.700;23.124;2023-03-20T05:01:08;93160.50;;;6.47;69.62
10718;BME280;13513;42.700;23.124;2023-03-20T05:03:39;93160.62;;;6.86;67.77
10718;BME280;13513;42.700;23.124;2023-03-20T05:06:09;93163.41;;;7.09;64.48
10718;BME280;13513;42.700;23.124;2023-03-20T05:08:40;93168.44;;;7.10;62.81
10718;BME280;13513;42.700;23.124;2023-03-20T05:11:11;93169.31;;;6.95;65.13
10718;BME280;13513;42.700;23.124;2023-03-20T05:13:43;93166.69;;;6.86;66.97
10718;BME280;13513;42.700;23.124;2023-03-20T05:16:12;93167.58;;;6.80;67.17
10718;BME280;13513;42.700;23.124;2023-03-20T05:18:43;93169.31;;;6.77;67.97
10718;BME280;13513;42.700;23.124;2023-03-20T05:21:15;93178.82;;;6.63;69.28
10718;BME280;13513;42.700;23.124;2023-03-20T05:23:50;93180.13;;;6.63;68.77
10718;BME280;13513;42.700;23.124;2023-03-20T05:26:21;93174.21;;;6.83;68.51
10718;BME280;13513;42.700;23.124;2023-03-20T05:28:53;93173.48;;;7.12;68.36
10718;BME280;13513;42.700;23.124;2023-03-20T05:31:24;93171.22;;;7.42;66.55
10718;BME280;13513;42.700;23.124;2023-03-20T05:33:55;93165.06;;;7.78;64.61
10718;BME280;13513;42.700;23.124;2023-03-20T05:36:26;93171.94;;;8.08;62.70
10718;BME280;13513;42.700;23.124;2023-03-20T05:38:55;93174.59;;;8.41;61.09
10718;BME280;13513;42.700;23.124;2023-03-20T05:41:28;93168.52;;;8.72;60.75
10718;BME280;13513;42.700;23.124;2023-03-20T05:43:59;93167.41;;;9.17;58.57
10718;BME280;13513;42.700;23.124;2023-03-20T05:46:30;93165.70;;;9.62;56.19
10718;BME280;13513;42.700;23.124;2023-03-20T05:49:01;93162.42;;;9.97;55.36
10718;BME280;13513;42.700;23.124;2023-03-20T05:51:32;93167.70;;;10.25;53.26
10718;BME280;13513;42.700;23.124;2023-03-20T05:54:03;93168.65;;;10.49;52.41
10718;BME280;13513;42.700;23.124;2023-03-20T05:56:34;93167.00;;;10.79;51.51
10718;BME280;13513;42.700;23.124;2023-03-20T05:59:06;93171.19;;;11.10;51.43
10718;BME280;13513;42.700;23.124;2023-03-20T06:01:37;93163.86;;;11.36;50.57
10718;BME280;13513;42.700;23.124;2023-03-20T06:04:08;93166.08;;;11.63;49.36
10718;BME280;13513;42.700;23.124;2023-03-20T06:06:39;93163.74;;;12.12;48.02
10718;BME280;13513;42.700;23.124;2023-03-20T06:09:09;93159.36;;;12.25;47.48
10718;BME280;13513;42.700;23.124;2023-03-20T06:11:40;93155.73;;;12.61;46.64
10718;BME280;13513;42.700;23.124;2023-03-20T06:14:10;93157.37;;;12.98;46.00
10718;BME280;13513;42.700;23.124;2023-03-20T06:16:40;93150.41;;;13.31;44.04
10718;BME280;13513;42.700;23.124;2023-03-20T06:19:11;93150.63;;;13.69;44.38
10718;BME280;13513;42.700;23.124;2023-03-20T06:21:42;93153.05;;;13.78;44.08
10718;BME280;13513;42.700;23.124;2023-03-20T06:24:14;93158.43;;;14.00;42.89
10718;BME280;13513;42.700;23.124;2023-03-20T06:26:44;93159.88;;;14.35;42.20
10718;BME280;13513;42.700;23.124;2023-03-20T06:29:14;93161.81;;;14.87;40.82
10718;BME280;13513;42.700;23.124;2023-03-20T06:31:45;93163.13;;;15.20;40.27
10718;BME280;13513;42.700;23.124;2023-03-20T06:34:16;93158.58;;;15.33;40.59
10718;BME280;13513;42.700;23.124;2023-03-20T06:36:47;93160.48;;;15.15;40.60
10718;BME280;13513;42.700;23.124;2023-03-20T06:39:17;93157.03;;;15.09;40.63
10718;BME280;13513;42.700;23.124;2023-03-20T06:41:49;93159.38;;;15.43;39.62
10718;BME280;13513;42.700;23.124;2023-03-20T06:44:19;93154.22;;;15.84;39.32
10718;BME280;13513;42.700;23.124;2023-03-20T06:46:51;93152.22;;;16.18;39.89
10718;BME280;13513;42.700;23.124;2023-03-20T06:49:22;93147.56;;;16.41;39.28
10718;BME280;13513;42.700;23.124;2023-03-20T06:51:52;93150.91;;;16.64;38.98
10718;BME280;13513;42.700;23.124;2023-03-20T06:54:23;93151.84;;;16.80;37.63
10718;BME280;13513;42.700;23.124;2023-03-20T06:56:55;93154.89;;;17.02;36.32
10718;BME280;13513;42.700;23.124;2023-03-20T06:59:25;93145.39;;;17.51;35.56
10718;BME280;13513;42.700;23.124;2023-03-20T07:01:56;93150.44;;;18.02;34.83
10718;BME280;13513;42.700;23.124;2023-03-20T07:04:26;93142.80;;;18.37;33.99
10718;BME280;13513;42.700;23.124;2023-03-20T07:06:58;93143.79;;;18.81;32.37
10718;BME280;13513;42.700;23.124;2023-03-20T07:09:28;93147.13;;;18.54;32.60
10718;BME280;13513;42.700;23.124;2023-03-20T07:11:59;93146.97;;;18.22;33.21
10718;BME280;13513;42.700;23.124;2023-03-20T07:14:30;93141.75;;;18.33;34.45
10718;BME280;13513;42.700;23.124;2023-03-20T07:17:01;93145.61;;;18.85;32.91
10718;BME280;13513;42.700;23.124;2023-03-20T07:19:32;93145.60;;;19.36;32.14
10718;BME280;13513;42.700;23.124;2023-03-20T07:22:06;93148.59;;;19.94;30.67
10718;BME280;13513;42.700;23.124;2023-03-20T07:24:37;93145.06;;;20.36;30.23
10718;BME280;13513;42.700;23.124;2023-03-20T07:27:07;93151.53;;;21.20;29.23
10718;BME280;13513;42.700;23.124;2023-03-20T07:29:38;93148.53;;;21.10;28.37
10718;BME280;13513;42.700;23.124;2023-03-20T07:32:09;93147.27;;;21.41;29.51
10718;BME280;13513;42.700;23.124;2023-03-20T07:34:43;93151.62;;;21.70;29.07
10718;BME280;13513;42.700;23.124;2023-03-20T07:37:14;93146.79;;;22.11;27.88
10718;BME280;13513;42.700;23.124;2023-03-20T07:39:45;93145.02;;;22.73;28.14
10718;BME280;13513;42.700;23.124;2023-03-20T07:42:16;93150.69;;;23.17;27.26
10718;BME280;13513;42.700;23.124;2023-03-20T07:44:47;93149.79;;;22.93;27.27
10718;BME280;13513;42.700;23.124;2023-03-20T07:47:18;93143.46;;;22.98;28.08
10718;BME280;13513;42.700;23.124;2023-03-20T07:49:49;93152.12;;;23.32;26.60
10718;BME280;13513;42.700;23.124;2023-03-20T07:52:21;93148.70;;;23.86;27.33
10718;BME280;13513;42.700;23.124;2023-03-20T07:54:51;93139.41;;;24.35;26.52
10718;BME280;13513;42.700;23.124;2023-03-20T07:57:22;93139.89;;;24.95;25.78
10718;BME280;13513;42.700;23.124;2023-03-20T07:59:52;93146.97;;;25.55;24.56
10718;BME280;13513;42.700;23.124;2023-03-20T08:02:23;93145.06;;;26.45;23.26
10718;BME280;13513;42.700;23.124;2023-03-20T08:04:54;93138.63;;;27.04;23.04
10718;BME280;13513;42.700;23.124;2023-03-20T08:07:25;93135.84;;;26.64;23.13
10718;BME280;13513;42.700;23.124;2023-03-20T08:09:56;93142.06;;;25.69;23.94
10718;BME280;13513;42.700;23.124;2023-03-20T08:12:27;93138.27;;;24.88;24.80
10718;BME280;13513;42.700;23.124;2023-03-20T08:14:57;93139.91;;;24.66;25.29
10718;BME280;13513;42.700;23.124;2023-03-20T08:17:28;93140.85;;;25.46;25.07
10718;BME280;13513;42.700;23.124;2023-03-20T08:19:59;93139.61;;;26.09;24.03
10718;BME280;13513;42.700;23.124;2023-03-20T08:22:32;93145.48;;;26.23;24.06
10718;BME280;13513;42.700;23.124;2023-03-20T08:25:01;93147.97;;;27.18;23.91
10718;BME280;13513;42.700;23.124;2023-03-20T08:27:31;93155.16;;;27.78;22.14
10718;BME280;13513;42.700;23.124;2023-03-20T08:30:03;93141.80;;;26.57;23.72
10718;BME280;13513;42.700;23.124;2023-03-20T08:32:33;93147.27;;;24.20;26.14
10718;BME280;13513;42.700;23.124;2023-03-20T08:35:05;93147.42;;;24.96;25.23
10718;BME280;13513;42.700;23.124;2023-03-20T08:37:36;93151.30;;;24.86;25.60
10718;BME280;13513;42.700;23.124;2023-03-20T08:40:07;93145.34;;;25.95;25.11
10718;BME280;13513;42.700;23.124;2023-03-20T08:42:39;93151.22;;;27.69;22.09
10718;BME280;13513;42.700;23.124;2023-03-20T08:45:11;93147.77;;;29.64;21.23
10718;BME280;13513;42.700;23.124;2023-03-20T08:47:41;93148.20;;;31.04;20.07
10718;BME280;13513;42.700;23.124;2023-03-20T08:50:13;93151.91;;;32.77;18.34
10718;BME280;13513;42.700;23.124;2023-03-20T08:52:44;93141.98;;;33.97;17.90
10718;BME280;13513;42.700;23.124;2023-03-20T08:55:15;93141.23;;;34.66;17.25
10718;BME280;13513;42.700;23.124;2023-03-20T08:57:46;93142.05;;;35.33;16.49
10718;BME280;13513;42.700;23.124;2023-03-20T09:00:18;93143.28;;;34.28;15.96
10718;BME280;13513;42.700;23.124;2023-03-20T09:02:48;93144.61;;;32.68;17.36
10718;BME280;13513;42.700;23.124;2023-03-20T09:05:19;93134.58;;;31.60;18.18
10718;BME280;13513;42.700;23.124;2023-03-20T09:07:50;93126.13;;;30.90;18.84
10718;BME280;13513;42.700;23.124;2023-03-20T09:10:21;93134.75;;;29.04;19.71
10718;BME280;13513;42.700;23.124;2023-03-20T09:12:52;93132.73;;;27.59;21.43
10718;BME280;13513;42.700;23.124;2023-03-20T09:15:23;93129.25;;;28.02;22.05
10718;BME280;13513;42.700;23.124;2023-03-20T09:17:53;93126.00;;;25.85;23.04
10718;BME280;13513;42.700;23.124;2023-03-20T09:20:24;93125.83;;;27.16;22.56
10718;BME280;13513;42.700;23.124;2023-03-20T09:22:56;93122.22;;;26.10;23.80
10718;BME280;13513;42.700;23.124;2023-03-20T09:25:26;93113.77;;;25.20;25.10
10718;BME280;13513;42.700;23.124;2023-03-20T09:27:57;93112.27;;;27.10;23.75
10718;BME280;13513;42.700;23.124;2023-03-20T09:30:27;93103.34;;;28.66;21.67
10718;BME280;13513;42.700;23.124;2023-03-20T09:32:57;93099.00;;;29.88;20.83
10718;BME280;13513;42.700;23.124;2023-03-20T09:35:29;93102.53;;;32.26;19.33
10718;BME280;13513;42.700;23.124;2023-03-20T09:38:00;93103.66;;;32.58;18.46
10718;BME280;13513;42.700;23.124;2023-03-20T09:46:13;93093.29;;;28.86;20.95
10718;BME280;13513;42.700;23.124;2023-03-20T09:48:47;93089.88;;;29.42;19.87
10718;BME280;13513;42.700;23.124;2023-03-20T09:51:23;93083.41;;;30.66;20.18
10718;BME280;13513;42.700;23.124;2023-03-20T09:53:53;93084.41;;;30.54;20.50
10718;BME280;13513;42.700;23.124;2023-03-20T09:56:25;93073.53;;;32.18;18.46
10718;BME280;13513;42.700;23.124;2023-03-20T09:59:01;93067.23;;;32.78;18.21
10718;BME280;13513;42.700;23.124;2023-03-20T10:01:39;93070.69;;;33.22;17.60
10718;BME280;13513;42.700;23.124;2023-03-20T10:04:07;93064.52;;;31.61;18.66
10718;BME280;13513;42.700;23.124;2023-03-20T10:06:38;93055.63;;;32.68;19.02
10718;BME280;13513;42.700;23.124;2023-03-20T10:09:17;93058.50;;;32.62;17.07
10718;BME280;13513;42.700;23.124;2023-03-20T10:12:22;93049.28;;;33.07;17.92
10718;BME280;13513;42.700;23.124;2023-03-20T10:14:54;93052.43;;;33.47;17.89
10718;BME280;13513;42.700;23.124;2023-03-20T10:17:47;93055.37;;;32.36;17.71
10718;BME280;13513;42.700;23.124;2023-03-20T10:22:57;93046.19;;;27.52;21.86
10718;BME280;13513;42.700;23.124;2023-03-20T10:25:42;93043.27;;;25.81;23.66
10718;BME280;13513;42.700;23.124;2023-03-20T10:28:21;93036.64;;;25.14;25.81
10718;BME280;13513;42.700;23.124;2023-03-20T10:34:02;93033.87;;;24.26;25.13
10718;BME280;13513;42.700;23.124;2023-03-20T10:36:37;93025.88;;;24.09;24.53
10718;BME280;13513;42.700;23.124;2023-03-20T10:41:55;93023.08;;;24.11;25.63
10718;BME280;13513;42.700;23.124;2023-03-20T10:44:32;93020.52;;;24.29;26.05
10718;BME280;13513;42.700;23.124;2023-03-20T10:47:04;93017.95;;;24.68;24.72
10718;BME280;13513;42.700;23.124;2023-03-20T10:49:51;93008.56;;;25.12;25.69
10718;BME280;13513;42.700;23.124;2023-03-20T10:52:30;93010.73;;;25.45;24.21
10718;BME280;13513;42.700;23.124;2023-03-20T10:55:17;93010.06;;;25.48;24.82
10718;BME280;13513;42.700;23.124;2023-03-20T10:57:45;93007.52;;;24.08;23.39
10718;BME280;13513;42.700;23.124;2023-03-20T11:00:22;93007.02;;;23.63;24.54
10718;BME280;13513;42.700;23.124;2023-03-20T11:02:53;93009.59;;;23.28;26.55
10718;BME280;13513;42.700;23.124;2023-03-20T11:05:28;92996.05;;;24.26;26.33
10718;BME280;13513;42.700;23.124;2023-03-20T11:08:12;93000.98;;;24.38;23.46
10718;BME280;13513;42.700;23.124;2023-03-20T11:10:43;92999.69;;;24.65;23.86
10718;BME280;13513;42.700;23.124;2023-03-20T11:15:52;92984.16;;;25.71;21.23
10718;BME280;13513;42.700;23.124;2023-03-20T11:18:26;92983.03;;;25.84;19.99
10718;BME280;13513;42.700;23.124;2023-03-20T11:20:58;92986.88;;;26.83;20.30
10718;BME280;13513;42.700;23.124;2023-03-20T11:23:35;92979.72;;;27.83;18.96
10718;BME280;13513;42.700;23.124;2023-03-20T11:26:13;92979.27;;;28.52;18.04
10718;BME280;13513;42.700;23.124;2023-03-20T11:28:56;92984.02;;;27.47;16.86
10718;BME280;13513;42.700;23.124;2023-03-20T11:31:38;92972.95;;;27.24;18.47
10718;BME280;13513;42.700;23.124;2023-03-20T11:34:21;92970.17;;;25.63;20.40
10718;BME280;13513;42.700;23.124;2023-03-20T11:36:59;92966.66;;;25.87;18.80
10718;BME280;13513;42.700;23.124;2023-03-20T11:39:30;92962.15;;;27.06;17.98
10718;BME280;13513;42.700;23.124;2023-03-20T11:42:18;92949.50;;;28.59;18.25
10718;BME280;13513;42.700;23.124;2023-03-20T11:44:34;92949.88;;;29.34;17.44
10718;BME280;13513;42.700;23.124;2023-03-20T11:47:17;92944.63;;;30.51;17.53
10718;BME280;13513;42.700;23.124;2023-03-20T11:49:53;92941.93;;;31.43;15.83
10718;BME280;13513;42.700;23.124;2023-03-20T11:52:28;92936.48;;;31.27;15.31
10718;BME280;13513;42.700;23.124;2023-03-20T11:54:59;92929.14;;;31.91;15.40
10718;BME280;13513;42.700;23.124;2023-03-20T11:57:37;92925.78;;;32.35;14.06
10718;BME280;13513;42.700;23.124;2023-03-20T12:00:51;92923.37;;;32.87;13.42
10718;BME280;13513;42.700;23.124;2023-03-20T12:02:42;92926.98;;;31.50;13.99
10718;BME280;13513;42.700;23.124;2023-03-20T12:05:31;92921.58;;;32.24;14.38
10718;BME280;13513;42.700;23.124;2023-03-20T12:08:11;92908.77;;;31.45;17.01
10718;BME280;13513;42.700;23.124;2023-03-20T12:10:41;92907.70;;;29.92;17.98
10718;BME280;13513;42.700;23.124;2023-03-20T12:13:17;92902.91;;;28.89;19.28
10718;BME280;13513;42.700;23.124;2023-03-20T12:15:51;92898.61;;;27.60;22.02
10718;BME280;13513;42.700;23.124;2023-03-20T12:18:35;92900.70;;;26.71;21.91
10718;BME280;13513;42.700;23.124;2023-03-20T12:21:34;92900.31;;;26.50;21.96
10718;BME280;13513;42.700;23.124;2023-03-20T12:24:11;92899.66;;;25.78;21.96
10718;BME280;13513;42.700;23.124;2023-03-20T12:26:49;92897.34;;;25.14;20.58
10718;BME280;13513;42.700;23.124;2023-03-20T12:32:08;92897.30;;;23.96;24.15
10718;BME280;13513;42.700;23.124;2023-03-20T12:34:41;92891.45;;;23.94;23.00
10718;BME280;13513;42.700;23.124;2023-03-20T12:37:11;92885.41;;;23.53;22.89
10718;BME280;13513;42.700;23.124;2023-03-20T12:39:47;92881.49;;;23.57;24.78
10718;BME280;13513;42.700;23.124;2023-03-20T12:42:33;92879.53;;;23.80;23.74
10718;BME280;13513;42.700;23.124;2023-03-20T12:45:22;92875.73;;;23.67;23.60
10718;BME280;13513;42.700;23.124;2023-03-20T12:48:13;92871.03;;;23.03;24.44
10718;BME280;13513;42.700;23.124;2023-03-20T12:50:46;92870.00;;;23.01;26.23
10718;BME280;13513;42.700;23.124;2023-03-20T13:01:51;92866.14;;;22.73;24.34
10718;BME280;13513;42.700;23.124;2023-03-20T13:07:19;92859.31;;;22.99;22.79
10718;BME280;13513;42.700;23.124;2023-03-20T13:10:02;92847.12;;;22.93;22.85
10718;BME280;13513;42.700;23.124;2023-03-20T13:12:58;92846.46;;;22.81;21.58
10718;BME280;13513;42.700;23.124;2023-03-20T13:18:34;92834.63;;;23.41;22.38
10718;BME280;13513;42.700;23.124;2023-03-20T13:21:00;92832.69;;;23.50;22.11
10718;BME280;13513;42.700;23.124;2023-03-20T13:23:33;92828.20;;;23.74;21.71
10718;BME280;13513;42.700;23.124;2023-03-20T13:32:02;92819.27;;;24.03;23.98
10718;BME280;13513;42.700;23.124;2023-03-20T13:34:31;92821.59;;;23.92;22.91
10718;BME280;13513;42.700;23.124;2023-03-20T13:42:59;92813.87;;;24.03;22.57
10718;BME280;13513;42.700;23.124;2023-03-20T13:45:44;92810.67;;;24.15;23.95
10718;BME280;13513;42.700;23.124;2023-03-20T13:48:34;92814.14;;;24.36;22.98
10718;BME280;13513;42.700;23.124;2023-03-20T13:51:18;92812.87;;;24.66;23.12
10718;BME280;13513;42.700;23.124;2023-03-20T13:56:56;92804.48;;;25.28;22.55
10718;BME280;13513;42.700;23.124;2023-03-20T14:05:17;92796.44;;;24.33;21.86
10718;BME280;13513;42.700;23.124;2023-03-20T14:07:49;92788.11;;;23.99;21.75
10718;BME280;13513;42.700;23.124;2023-03-20T14:13:16;92787.49;;;23.53;22.10
10718;BME280;13513;42.700;23.124;2023-03-20T14:15:55;92781.43;;;23.50;23.15
10718;BME280;13513;42.700;23.124;2023-03-20T14:18:26;92782.59;;;23.26;22.25
10718;BME280;13513;42.700;23.124;2023-03-20T14:21:08;92782.77;;;22.54;24.24
10718;BME280;13513;42.700;23.124;2023-03-20T14:23:36;92779.69;;;22.18;24.78
10718;BME280;13513;42.700;23.124;2023-03-20T14:26:57;92788.89;;;21.91;24.42
10718;BME280;13513;42.700;23.124;2023-03-20T14:28:51;92787.31;;;22.07;24.60
10718;BME280;13513;42.700;23.124;2023-03-20T14:31:30;92779.09;;;22.27;23.53
10718;BME280;13513;42.700;23.124;2023-03-20T14:34:16;92782.48;;;22.38;23.55
10718;BME280;13513;42.700;23.124;2023-03-20T14:37:01;92785.19;;;22.30;23.19
10718;BME280;13513;42.700;23.124;2023-03-20T14:39:57;92776.64;;;21.96;23.86
10718;BME280;13513;42.700;23.124;2023-03-20T14:42:48;92777.82;;;21.50;24.79
10718;BME280;13513;42.700;23.124;2023-03-20T14:45:42;92780.47;;;21.16;24.37
10718;BME280;13513;42.700;23.124;2023-03-20T14:48:55;92777.52;;;20.87;24.61
10718;BME280;13513;42.700;23.124;2023-03-20T14:53:29;92775.68;;;20.77;25.38
10718;BME280;13513;42.700;23.124;2023-03-20T14:56:12;92771.77;;;20.83;25.03
10718;BME280;13513;42.700;23.124;2023-03-20T14:58:52;92775.72;;;20.66;25.54
10718;BME280;13513;42.700;23.124;2023-03-20T15:01:27;92772.55;;;20.44;25.75
10718;BME280;13513;42.700;23.124;2023-03-20T15:04:07;92770.84;;;20.29;26.64
10718;BME280;13513;42.700;23.124;2023-03-20T15:06:34;92776.66;;;20.22;26.48